aviador You're here:

KCOE Decoded Metar

COEUR D'ALENE in ID, USA
Report Time2017-07-26 05:56:00
UTC Time2017-07-26 06:28:00
Flight Rules vfr VFR
Wind090° at 04 kt
W.Decomp.*RWY 06: 3.9 kt HW 0.8 kt RCW
RWY 02: 2.5 kt HW 3.1 kt RCW
W.Rank090° ranks 21
Current wind is below 090° avg. (4.8)
Visibility9999 m
Phenomena:N/A
Clouds:N/A
Expected CloudBase > 4,000 ft AGL from Temp-Dew spread
CeilingNone
Temp19°C (ISA +9)
Dew Point09°C (52% RH)
AAT17.3°C
QNH1016 hPa
Density Alt3,386 ft
Elevation2,320 ft
Report Wrong Elevation
Raw Report
METAR KCOE 260556Z AUTO 09004KT 10SM CLR 19/09 A3000 RMK AO2 SLP157
T01890094 10317 20183 53009=

Extra information for KCOE:More info

Metar Taf Metar & Taf Last 4 Metars F.Rules Stats Wind Profile Meteogram Temp Stats Airport Information Weather charts Add Link Nearby VenuesMetar ALERT Operation Metar Decoded Social comments

AIRNAV info for KCOE